createdAt,value
2018-10-16T00:01:32.922Z,43.01
2018-10-16T00:04:00.827Z,43.00
2018-10-16T00:06:31.541Z,43.37
2018-10-16T00:08:59.462Z,43.46
2018-10-16T00:11:27.320Z,43.80
2018-10-16T00:13:55.533Z,43.13
2018-10-16T00:16:23.396Z,43.12
2018-10-16T00:18:51.215Z,43.19
2018-10-16T00:21:19.035Z,43.26
2018-10-16T00:23:46.872Z,43.48
2018-10-16T00:26:14.995Z,43.78
2018-10-16T00:28:42.818Z,44.03
2018-10-16T00:31:10.709Z,44.04
2018-10-16T00:33:38.545Z,43.46
2018-10-16T00:36:06.456Z,43.87
2018-10-16T00:38:34.315Z,44.12
2018-10-16T00:41:02.498Z,43.48
2018-10-16T00:43:31.014Z,44.27
2018-10-16T00:45:58.818Z,44.25
2018-10-16T00:48:26.666Z,43.97
2018-10-16T00:50:54.511Z,44.37
2018-10-16T00:53:22.347Z,43.65
2018-10-16T00:55:50.193Z,43.89
2018-10-16T00:58:18.134Z,43.92
2018-10-16T01:00:46.052Z,44.17
2018-10-16T01:03:13.843Z,44.38
2018-10-16T01:05:41.723Z,43.96
2018-10-16T01:08:09.939Z,43.70
2018-10-16T01:10:37.835Z,44.48
2018-10-16T01:13:05.676Z,43.77
2018-10-16T01:15:33.962Z,44.25
2018-10-16T01:18:01.882Z,44.27
2018-10-16T01:20:30.359Z,44.49
2018-10-16T01:22:58.205Z,44.23
2018-10-16T01:25:26.180Z,44.55
2018-10-16T01:27:54.064Z,44.22
2018-10-16T01:30:21.917Z,44.44
2018-10-16T01:32:49.761Z,43.95
2018-10-16T01:35:17.559Z,44.15
2018-10-16T01:37:45.482Z,44.40
2018-10-16T01:40:13.600Z,43.88
2018-10-16T01:42:41.453Z,44.28
2018-10-16T01:45:09.999Z,44.02
2018-10-16T01:47:37.937Z,44.36
2018-10-16T01:50:06.321Z,44.82
2018-10-16T01:52:34.208Z,44.59
2018-10-16T01:55:02.168Z,44.13
2018-10-16T01:57:30.076Z,44.43
2018-10-16T01:59:58.318Z,45.01
2018-10-16T02:02:26.333Z,44.25
2018-10-16T02:04:54.213Z,44.96
2018-10-16T02:07:22.337Z,44.74
2018-10-16T02:09:50.150Z,44.31
2018-10-16T02:12:18.056Z,44.67
2018-10-16T02:14:45.940Z,45.44
2018-10-16T02:17:13.739Z,44.45
2018-10-16T02:19:41.649Z,45.24
2018-10-16T02:22:09.514Z,44.73
2018-10-16T02:24:37.412Z,44.78
2018-10-16T02:27:05.383Z,44.52
2018-10-16T02:29:33.281Z,44.62
2018-10-16T02:32:01.155Z,45.04
2018-10-16T02:34:32.438Z,44.81
2018-10-16T02:37:00.302Z,44.60
2018-10-16T02:39:28.165Z,45.10
2018-10-16T02:41:56.243Z,45.11
2018-10-16T02:44:24.076Z,44.90
2018-10-16T02:46:51.895Z,45.20
2018-10-16T02:49:19.792Z,45.30
2018-10-16T02:51:47.978Z,44.77
2018-10-16T02:54:15.833Z,45.22
2018-10-16T02:56:43.663Z,45.37
2018-10-16T02:59:11.671Z,45.07
2018-10-16T03:01:39.533Z,45.47
2018-10-16T03:04:11.305Z,45.33
2018-10-16T03:06:39.275Z,45.66
2018-10-16T03:09:08.606Z,45.20
2018-10-16T03:11:36.470Z,45.09
2018-10-16T03:14:04.700Z,45.64
2018-10-16T03:16:32.634Z,45.16
2018-10-16T03:19:00.664Z,45.86
2018-10-16T03:21:28.681Z,45.59
2018-10-16T03:23:56.550Z,46.08
2018-10-16T03:26:24.485Z,45.37
2018-10-16T03:28:52.368Z,45.93
2018-10-16T03:31:20.227Z,45.91
2018-10-16T03:33:48.455Z,45.55
2018-10-16T03:36:16.360Z,45.63
2018-10-16T03:38:44.359Z,45.48
2018-10-16T03:41:12.315Z,45.52
2018-10-16T03:43:40.227Z,45.68
2018-10-16T03:46:08.198Z,45.74
2018-10-16T03:48:36.016Z,46.01
2018-10-16T03:51:04.264Z,45.98
2018-10-16T03:53:32.079Z,45.99
2018-10-16T03:56:00.029Z,45.92
2018-10-16T03:58:28.338Z,45.82
2018-10-16T04:00:56.255Z,46.06
2018-10-16T04:03:24.239Z,46.14
2018-10-16T04:05:52.106Z,45.79
2018-10-16T04:08:20.000Z,46.19
2018-10-16T04:10:47.885Z,46.19
2018-10-16T04:13:15.907Z,46.24
2018-10-16T04:15:43.991Z,46.32
2018-10-16T04:18:11.835Z,45.91
2018-10-16T04:20:39.807Z,46.60
2018-10-16T04:23:07.812Z,46.09
2018-10-16T04:25:35.820Z,46.63
2018-10-16T04:28:04.216Z,46.63
2018-10-16T04:30:32.196Z,46.03
2018-10-16T04:33:00.125Z,45.91
2018-10-16T04:35:28.161Z,46.28
2018-10-16T04:37:56.102Z,45.98
2018-10-16T04:40:23.928Z,46.50
2018-10-16T04:42:51.851Z,46.51
2018-10-16T04:45:19.751Z,46.57
2018-10-16T04:47:47.724Z,46.48
2018-10-16T04:50:15.586Z,46.84
2018-10-16T04:52:43.500Z,46.62
2018-10-16T04:55:11.963Z,46.29
2018-10-16T04:57:39.804Z,46.35
2018-10-16T05:00:08.641Z,46.47
2018-10-16T05:02:37.972Z,46.45
2018-10-16T05:05:19.634Z,46.49
2018-10-16T05:07:48.311Z,46.20
2018-10-16T05:10:16.750Z,46.43
2018-10-16T05:12:44.762Z,46.54
2018-10-16T05:15:23.802Z,46.64
2018-10-16T05:17:51.736Z,46.57
2018-10-16T05:20:19.640Z,47.09
2018-10-16T05:22:47.563Z,46.37
2018-10-16T05:25:15.466Z,46.61
2018-10-16T05:27:43.403Z,46.89
2018-10-16T05:30:11.455Z,46.84
2018-10-16T05:32:39.413Z,46.66
2018-10-16T05:35:07.909Z,46.95
2018-10-16T05:37:35.747Z,46.77
2018-10-16T05:40:03.791Z,47.06
2018-10-16T05:42:32.359Z,46.83
2018-10-16T05:45:00.179Z,46.62
2018-10-16T05:47:28.078Z,46.65
2018-10-16T05:49:55.882Z,46.60
2018-10-16T05:52:23.700Z,47.10
2018-10-16T05:54:51.570Z,46.77
2018-10-16T05:57:19.464Z,46.91
2018-10-16T05:59:47.287Z,46.76
2018-10-16T06:02:15.143Z,46.83
2018-10-16T06:04:43.027Z,47.06
2018-10-16T06:07:10.920Z,47.28
2018-10-16T06:09:38.783Z,47.20
2018-10-16T06:12:06.705Z,47.18
2018-10-16T06:14:34.563Z,47.28
2018-10-16T06:17:02.756Z,47.36
2018-10-16T06:19:30.616Z,47.42
2018-10-16T06:21:58.428Z,47.21
2018-10-16T06:24:26.792Z,47.45
2018-10-16T06:26:54.601Z,47.39
2018-10-16T06:29:22.426Z,47.55
2018-10-16T06:31:50.280Z,47.64
2018-10-16T06:34:18.148Z,47.16
2018-10-16T06:36:46.024Z,47.59
2018-10-16T06:39:13.827Z,47.78
2018-10-16T06:41:41.871Z,47.66
2018-10-16T06:44:09.662Z,47.68
2018-10-16T06:46:37.576Z,47.47
2018-10-16T06:49:05.719Z,47.79
2018-10-16T06:51:33.591Z,47.39
2018-10-16T06:54:01.708Z,47.22
2018-10-16T06:56:29.610Z,47.54
2018-10-16T06:58:57.411Z,47.19
2018-10-16T07:01:25.259Z,47.71
2018-10-16T07:03:53.117Z,47.21
2018-10-16T07:06:20.973Z,47.67
2018-10-16T07:08:48.907Z,47.38
2018-10-16T07:11:16.731Z,47.15
2018-10-16T07:13:44.779Z,47.26
2018-10-16T07:16:12.603Z,47.09
2018-10-16T07:18:40.415Z,46.71
2018-10-16T07:21:08.294Z,46.43
2018-10-16T07:23:36.141Z,46.73
2018-10-16T07:26:04.600Z,46.10
2018-10-16T07:28:32.386Z,46.42
2018-10-16T07:31:00.782Z,46.43
2018-10-16T07:33:28.558Z,45.73
2018-10-16T07:35:56.379Z,45.55
2018-10-16T07:38:24.291Z,45.65
2018-10-16T07:40:52.143Z,45.46
2018-10-16T07:43:19.946Z,45.56
2018-10-16T07:45:47.811Z,45.30
2018-10-16T07:48:15.698Z,45.00
2018-10-16T07:50:43.647Z,44.32
2018-10-16T07:53:11.527Z,44.13
2018-10-16T07:55:39.352Z,44.03
2018-10-16T07:58:07.261Z,43.63
2018-10-16T08:00:35.444Z,43.26
2018-10-16T08:03:03.615Z,43.19
2018-10-16T08:05:31.467Z,43.39
2018-10-16T08:07:59.312Z,42.78
2018-10-16T08:10:28.028Z,42.82
2018-10-16T08:12:55.915Z,42.41
2018-10-16T08:15:23.834Z,41.89
2018-10-16T08:17:54.987Z,42.17
2018-10-16T08:20:22.876Z,41.51
2018-10-16T08:22:50.802Z,41.63
2018-10-16T08:25:18.798Z,40.58
2018-10-16T08:27:46.742Z,41.02
2018-10-16T08:30:14.645Z,39.92
2018-10-16T08:32:42.555Z,39.68
2018-10-16T08:35:10.454Z,39.34
2018-10-16T08:39:50.608Z,39.53
2018-10-16T08:42:40.946Z,39.37
2018-10-16T08:45:26.799Z,38.11
2018-10-16T08:48:12.046Z,37.97
2018-10-16T08:50:57.273Z,38.64
2018-10-16T08:53:25.117Z,37.41
2018-10-16T08:55:53.024Z,37.91
2018-10-16T08:58:20.930Z,37.36
2018-10-16T09:00:48.792Z,37.37
2018-10-16T09:03:16.636Z,36.60
2018-10-16T09:05:44.721Z,37.20
2018-10-16T09:08:12.705Z,37.09
2018-10-16T09:10:40.541Z,36.42
2018-10-16T09:13:12.752Z,36.44
2018-10-16T09:15:40.577Z,35.79
2018-10-16T09:18:08.546Z,36.12
2018-10-16T09:20:37.308Z,34.78
2018-10-16T09:23:05.313Z,35.42
2018-10-16T09:25:33.292Z,35.20
2018-10-16T09:28:01.207Z,34.39
2018-10-16T09:30:29.183Z,35.08
2018-10-16T09:32:57.044Z,34.26
2018-10-16T09:35:24.926Z,34.63
2018-10-16T09:37:52.798Z,33.85
2018-10-16T09:40:20.662Z,34.04
2018-10-16T09:42:48.508Z,33.73
2018-10-16T09:45:16.418Z,33.27
2018-10-16T09:47:44.829Z,32.81
2018-10-16T09:50:12.642Z,32.85
2018-10-16T09:52:40.572Z,32.73
2018-10-16T09:55:09.823Z,32.36
2018-10-16T09:57:37.767Z,32.90
2018-10-16T10:00:15.562Z,32.82
2018-10-16T10:02:43.483Z,32.33
2018-10-16T10:05:11.617Z,32.67
2018-10-16T10:07:39.626Z,32.32
2018-10-16T10:10:10.444Z,32.60
2018-10-16T10:12:38.708Z,32.55
2018-10-16T10:15:07.574Z,32.17
2018-10-16T10:17:35.969Z,31.65
2018-10-16T10:20:04.257Z,32.19
2018-10-16T10:22:32.257Z,31.61
2018-10-16T10:25:00.276Z,30.98
2018-10-16T10:27:28.227Z,30.95
2018-10-16T10:29:56.101Z,31.43
2018-10-16T10:32:24.106Z,31.04
2018-10-16T10:34:52.599Z,30.72
2018-10-16T10:37:20.525Z,30.53
2018-10-16T10:39:48.338Z,29.82
2018-10-16T10:42:16.156Z,30.26
2018-10-16T10:44:47.325Z,30.01
2018-10-16T10:47:15.139Z,29.78
2018-10-16T10:49:43.015Z,29.74
2018-10-16T10:52:11.154Z,29.46
2018-10-16T10:54:39.069Z,29.19
2018-10-16T10:57:07.476Z,29.34
2018-10-16T10:59:35.226Z,28.90
2018-10-16T11:02:04.179Z,28.84
2018-10-16T11:04:32.077Z,28.31
2018-10-16T11:06:59.932Z,28.46
2018-10-16T11:09:27.783Z,28.08
2018-10-16T11:11:56.399Z,28.41
2018-10-16T11:14:25.201Z,28.24
2018-10-16T11:16:53.253Z,27.86
2018-10-16T11:19:21.910Z,27.81
2018-10-16T11:21:50.106Z,28.21
2018-10-16T11:24:18.039Z,27.68
2018-10-16T11:26:46.010Z,27.63
2018-10-16T11:29:13.977Z,27.78
2018-10-16T11:31:41.881Z,27.56
2018-10-16T11:34:09.713Z,27.74
2018-10-16T11:36:39.175Z,27.78
2018-10-16T11:39:09.533Z,27.51
2018-10-16T11:41:37.764Z,27.50
2018-10-16T11:44:06.355Z,27.41
2018-10-16T11:46:34.304Z,27.19
2018-10-16T11:49:02.271Z,27.22
2018-10-16T11:51:30.202Z,27.24
2018-10-16T11:54:02.409Z,27.52
2018-10-16T11:56:30.465Z,27.54
2018-10-16T11:58:58.311Z,27.23
2018-10-16T12:01:26.176Z,26.89
2018-10-16T12:03:54.476Z,26.71
2018-10-16T12:06:22.313Z,26.70
2018-10-16T12:08:50.175Z,26.41
2018-10-16T12:11:18.199Z,26.42
2018-10-16T12:13:46.079Z,26.70
2018-10-16T12:16:13.938Z,26.55
2018-10-16T12:18:46.383Z,26.85
2018-10-16T12:21:16.300Z,26.52
2018-10-16T12:23:44.472Z,26.87
2018-10-16T12:26:12.296Z,26.58
2018-10-16T12:28:40.262Z,27.38
2018-10-16T12:31:08.563Z,27.19
2018-10-16T12:33:36.515Z,27.07
2018-10-16T12:36:04.481Z,27.38
2018-10-16T12:38:32.417Z,27.54
2018-10-16T12:41:00.373Z,27.51
2018-10-16T12:43:28.455Z,27.32
2018-10-16T12:45:56.660Z,27.46
2018-10-16T12:48:24.663Z,27.43
2018-10-16T12:50:52.604Z,27.76
2018-10-16T12:53:20.443Z,27.79
2018-10-16T12:55:48.403Z,27.62
2018-10-16T12:58:16.252Z,27.64
2018-10-16T13:00:44.261Z,28.06
2018-10-16T13:03:12.198Z,27.77
2018-10-16T13:05:39.976Z,27.76
2018-10-16T13:08:07.856Z,28.51
2018-10-16T13:10:35.735Z,28.26
2018-10-16T13:13:03.567Z,28.23
2018-10-16T13:15:31.444Z,28.85
2018-10-16T13:17:59.326Z,28.41
2018-10-16T13:20:27.299Z,28.84
2018-10-16T13:22:55.319Z,28.13
2018-10-16T13:25:23.208Z,28.20
2018-10-16T13:27:51.137Z,27.86
2018-10-16T13:30:19.804Z,28.56
2018-10-16T13:32:48.769Z,28.47
2018-10-16T13:35:18.095Z,28.65
2018-10-16T13:37:46.439Z,28.54
2018-10-16T13:40:14.895Z,27.88
2018-10-16T13:42:42.663Z,28.54
2018-10-16T13:45:11.677Z,28.08
2018-10-16T13:47:39.775Z,27.93
2018-10-16T13:50:12.023Z,28.62
2018-10-16T13:52:45.960Z,28.70
2018-10-16T13:55:14.005Z,28.15
2018-10-16T13:57:42.038Z,27.87
2018-10-16T14:00:16.907Z,28.42
2018-10-16T14:02:46.027Z,27.88
2018-10-16T14:05:14.406Z,27.90
2018-10-16T14:07:42.651Z,27.70
2018-10-16T14:10:11.703Z,27.99
2018-10-16T14:12:41.024Z,28.62
2018-10-16T14:15:09.619Z,28.16
2018-10-16T14:17:37.577Z,28.38
2018-10-16T14:20:06.798Z,27.90
2018-10-16T14:22:35.088Z,27.54
2018-10-16T14:25:02.963Z,27.18
2018-10-16T14:27:30.788Z,27.23
2018-10-16T14:29:58.763Z,27.55
2018-10-16T14:32:26.623Z,27.07
2018-10-16T14:34:54.521Z,27.16
2018-10-16T14:37:23.151Z,27.91
2018-10-16T14:39:51.047Z,27.60
2018-10-16T14:42:18.907Z,27.40
2018-10-16T14:44:47.117Z,27.19
2018-10-16T14:47:14.951Z,27.61
2018-10-16T14:49:42.893Z,27.94
2018-10-16T14:52:11.043Z,27.87
2018-10-16T14:54:39.863Z,28.29
2018-10-16T14:57:07.691Z,27.85
2018-10-16T14:59:35.554Z,28.42
2018-10-16T15:02:03.612Z,27.96
2018-10-16T15:04:31.426Z,28.59
2018-10-16T15:06:59.666Z,28.18
2018-10-16T15:09:27.536Z,28.18
2018-10-16T15:11:59.376Z,28.38
2018-10-16T15:14:27.550Z,28.62
2018-10-16T15:16:55.367Z,28.85
2018-10-16T15:19:23.203Z,28.81
2018-10-16T15:21:52.194Z,29.64
2018-10-16T15:24:21.333Z,29.64
2018-10-16T15:26:49.155Z,29.52
2018-10-16T15:29:16.983Z,29.64
2018-10-16T15:31:44.816Z,30.10
2018-10-16T15:34:12.650Z,30.61
2018-10-16T15:36:41.132Z,31.01
2018-10-16T15:39:10.718Z,30.59
2018-10-16T15:41:38.643Z,31.62
2018-10-16T15:44:07.115Z,31.69
2018-10-16T15:46:35.146Z,31.06
2018-10-16T15:49:03.067Z,31.68
2018-10-16T15:51:31.791Z,32.15
2018-10-16T15:53:59.808Z,31.52
2018-10-16T15:56:27.660Z,31.83
2018-10-16T15:58:55.473Z,32.03
2018-10-16T16:01:23.500Z,32.52
2018-10-16T16:03:51.407Z,31.90
2018-10-16T16:06:19.246Z,32.32
2018-10-16T16:08:47.153Z,32.30
2018-10-16T16:11:15.279Z,32.70
2018-10-16T16:13:43.147Z,32.60
2018-10-16T16:16:11.058Z,33.67
2018-10-16T16:18:39.286Z,33.31
2018-10-16T16:21:07.255Z,33.46
2018-10-16T16:23:35.111Z,33.87
2018-10-16T16:26:03.177Z,33.05
2018-10-16T16:28:31.003Z,33.18
2018-10-16T16:30:58.844Z,33.92
2018-10-16T16:33:26.756Z,33.78
2018-10-16T16:35:54.633Z,34.51
2018-10-16T16:38:22.627Z,34.30
2018-10-16T16:40:50.549Z,34.50
2018-10-16T16:43:18.395Z,33.74
2018-10-16T16:45:46.235Z,34.53
2018-10-16T16:48:14.135Z,34.64
2018-10-16T16:50:42.164Z,34.01
2018-10-16T16:53:10.057Z,34.16
2018-10-16T16:55:37.930Z,35.05
2018-10-16T16:58:06.162Z,35.26
2018-10-16T17:00:34.214Z,34.61
2018-10-16T17:03:02.148Z,34.79
2018-10-16T17:05:30.047Z,35.66
2018-10-16T17:07:58.042Z,35.85
2018-10-16T17:10:26.059Z,35.10
2018-10-16T17:12:54.407Z,35.13
2018-10-16T17:15:22.304Z,35.88
2018-10-16T17:17:50.518Z,36.03
2018-10-16T17:20:18.360Z,35.07
2018-10-16T17:22:46.181Z,36.25
2018-10-16T17:25:14.708Z,35.63
2018-10-16T17:27:43.845Z,35.70
2018-10-16T17:30:14.234Z,36.17
2018-10-16T17:32:42.790Z,35.90
2018-10-16T17:35:11.295Z,36.82
2018-10-16T17:37:39.882Z,36.20
2018-10-16T17:40:10.430Z,36.36
2018-10-16T17:42:38.266Z,36.64
2018-10-16T17:45:07.883Z,36.85
2018-10-16T17:47:36.056Z,36.81
2018-10-16T17:50:05.968Z,36.92
2018-10-16T17:52:35.079Z,37.08
2018-10-16T17:55:03.456Z,37.92
2018-10-16T17:57:31.396Z,37.70
2018-10-16T17:59:59.379Z,37.47
2018-10-16T18:02:27.486Z,37.94
2018-10-16T18:04:55.432Z,37.93
2018-10-16T18:07:23.455Z,38.49
2018-10-16T18:09:51.593Z,37.83
2018-10-16T18:12:19.470Z,38.27
2018-10-16T18:14:47.300Z,38.24
2018-10-16T18:17:15.132Z,38.92
2018-10-16T18:19:43.073Z,38.55
2018-10-16T18:22:10.990Z,38.45
2018-10-16T18:24:38.935Z,38.64
2018-10-16T18:27:06.834Z,38.75
2018-10-16T18:29:34.770Z,39.13
2018-10-16T18:32:02.789Z,39.64
2018-10-16T18:34:30.764Z,39.44
2018-10-16T18:36:58.589Z,39.98
2018-10-16T18:39:26.495Z,39.25
2018-10-16T18:41:54.351Z,39.31
2018-10-16T18:44:22.204Z,39.39
2018-10-16T18:46:50.198Z,40.04
2018-10-16T18:49:18.130Z,39.75
2018-10-16T18:51:46.509Z,40.21
2018-10-16T18:54:14.699Z,40.40
2018-10-16T18:56:42.951Z,39.93
2018-10-16T18:59:10.934Z,40.53
2018-10-16T19:01:39.045Z,40.14
2018-10-16T19:04:07.278Z,40.25
2018-10-16T19:06:35.159Z,40.34
2018-10-16T19:09:05.048Z,41.01
2018-10-16T19:11:33.218Z,41.25
2018-10-16T19:14:01.262Z,41.34
2018-10-16T19:16:29.127Z,40.90
2018-10-16T19:18:57.091Z,41.76
2018-10-16T19:21:25.008Z,41.60
2018-10-16T19:23:52.899Z,41.74
2018-10-16T19:26:20.747Z,41.72
2018-10-16T19:28:48.585Z,41.83
2018-10-16T19:31:16.461Z,41.57
2018-10-16T19:33:44.299Z,42.06
2018-10-16T19:36:12.308Z,41.82
2018-10-16T19:38:40.262Z,41.58
2018-10-16T19:41:08.841Z,41.73
2018-10-16T19:43:36.806Z,41.80
2018-10-16T19:46:05.166Z,42.15
2018-10-16T19:48:33.220Z,42.81
2018-10-16T19:51:01.301Z,42.09
2018-10-16T19:53:29.463Z,42.96
2018-10-16T19:56:03.396Z,42.30
2018-10-16T19:58:31.320Z,42.88
2018-10-16T20:00:59.276Z,42.86
2018-10-16T20:03:27.055Z,43.08
2018-10-16T20:05:54.979Z,42.59
2018-10-16T20:08:23.345Z,43.13
2018-10-16T20:10:51.171Z,43.22
2018-10-16T20:13:19.081Z,42.86
2018-10-16T20:15:47.345Z,43.04
2018-10-16T20:18:15.145Z,43.14
2018-10-16T20:20:44.442Z,42.95
2018-10-16T20:23:12.379Z,43.02
2018-10-16T20:25:41.079Z,43.18
2018-10-16T20:28:08.944Z,43.19
2018-10-16T20:30:36.751Z,44.07
2018-10-16T20:33:04.729Z,43.73
2018-10-16T20:35:32.627Z,43.35
2018-10-16T20:38:00.800Z,43.87
2018-10-16T20:40:28.776Z,43.42
2018-10-16T20:42:56.734Z,43.95
2018-10-16T20:45:24.539Z,43.95
2018-10-16T20:47:52.573Z,44.20
2018-10-16T20:50:21.423Z,43.96
2018-10-16T20:52:49.275Z,43.48
2018-10-16T20:55:17.217Z,43.51
2018-10-16T20:57:45.194Z,44.37
2018-10-16T21:00:13.079Z,43.65
2018-10-16T21:02:40.911Z,43.70
2018-10-16T21:05:09.384Z,44.55
2018-10-16T21:07:37.024Z,44.38
2018-10-16T21:10:06.258Z,44.27
2018-10-16T21:12:34.138Z,43.80
2018-10-16T21:15:02.222Z,44.05
2018-10-16T21:17:30.148Z,44.60
2018-10-16T21:19:58.094Z,44.21
2018-10-16T21:22:25.966Z,44.75
2018-10-16T21:24:54.071Z,44.03
2018-10-16T21:27:22.031Z,44.81
2018-10-16T21:33:40.825Z,43.98
2018-10-16T21:36:08.686Z,44.95
2018-10-16T21:38:36.564Z,44.95
2018-10-16T21:41:04.544Z,44.36
2018-10-16T21:43:32.632Z,44.87
2018-10-16T21:46:00.729Z,44.79
2018-10-16T21:48:28.619Z,45.17
2018-10-16T21:50:56.531Z,44.61
2018-10-16T21:53:24.409Z,44.91
2018-10-16T21:55:52.287Z,45.12
2018-10-16T21:58:20.132Z,45.33
2018-10-16T22:00:53.803Z,44.71
2018-10-16T22:03:21.595Z,45.52
2018-10-16T22:05:49.476Z,45.02
2018-10-16T22:08:17.325Z,45.22
2018-10-16T22:10:45.434Z,45.04
2018-10-16T22:13:13.408Z,45.21
2018-10-16T22:15:41.251Z,45.77
2018-10-16T22:18:09.143Z,45.59
2018-10-16T22:20:37.032Z,45.90
2018-10-16T22:23:05.104Z,45.39
2018-10-16T22:25:32.916Z,45.58
2018-10-16T22:28:00.819Z,45.46
2018-10-16T22:30:28.752Z,46.00
2018-10-16T22:32:56.625Z,45.78
2018-10-16T22:35:24.528Z,45.88
2018-10-16T22:37:52.346Z,45.30
2018-10-16T22:40:20.230Z,45.58
2018-10-16T22:42:48.159Z,45.83
2018-10-16T22:45:18.958Z,45.57
2018-10-16T22:47:46.830Z,45.78
2018-10-16T22:50:14.735Z,45.85
2018-10-16T22:52:42.571Z,45.63
2018-10-16T22:55:10.496Z,45.57
2018-10-16T22:57:38.655Z,45.79
2018-10-16T23:00:13.791Z,45.73
2018-10-16T23:02:42.299Z,45.70
2018-10-16T23:05:10.267Z,45.97
2018-10-16T23:07:38.063Z,45.49
2018-10-16T23:10:06.019Z,45.91
2018-10-16T23:12:33.836Z,45.62
2018-10-16T23:15:01.759Z,45.58
2018-10-16T23:17:29.600Z,46.05
2018-10-16T23:19:57.418Z,46.00
2018-10-16T23:22:25.269Z,45.50
2018-10-16T23:24:53.197Z,46.01
2018-10-16T23:27:21.070Z,45.59
2018-10-16T23:29:48.989Z,46.09
2018-10-16T23:32:16.898Z,45.76
2018-10-16T23:34:44.941Z,45.90
2018-10-16T23:37:12.857Z,46.06
2018-10-16T23:39:40.639Z,46.13
2018-10-16T23:42:08.539Z,46.17
2018-10-16T23:44:36.368Z,45.74
2018-10-16T23:47:04.309Z,45.80
2018-10-16T23:49:32.241Z,46.26
2018-10-16T23:52:00.082Z,46.34
2018-10-16T23:54:28.088Z,46.33
2018-10-16T23:56:56.035Z,46.11
2018-10-16T23:59:23.935Z,46.12
